sensor_id;sensor_type;location;lat;lon;timestamp;pressure;altitude;pressure_sealevel;temperature;humidity
48200;BME280;33990;44.602;10.976;2023-02-21T00:01:44;101848.44;;;20.80;44.45
48200;BME280;33990;44.602;10.976;2023-02-21T00:04:30;101850.38;;;20.78;44.30
48200;BME280;33990;44.602;10.976;2023-02-21T00:07:16;101839.59;;;20.78;44.24
48200;BME280;33990;44.602;10.976;2023-02-21T00:10:04;101839.59;;;20.78;44.27
48200;BME280;33990;44.602;10.976;2023-02-21T00:12:50;101839.72;;;20.77;44.25
48200;BME280;33990;44.602;10.976;2023-02-21T00:15:36;101838.88;;;20.76;44.19
48200;BME280;33990;44.602;10.976;2023-02-21T00:18:22;101834.47;;;20.75;44.26
48200;BME280;33990;44.602;10.976;2023-02-21T00:21:08;101838.88;;;20.76;44.24
48200;BME280;33990;44.602;10.976;2023-02-21T00:23:53;101848.78;;;20.76;44.20
48200;BME280;33990;44.602;10.976;2023-02-21T00:26:39;101839.94;;;20.73;44.18
48200;BME280;33990;44.602;10.976;2023-02-21T00:29:25;101840.81;;;20.74;44.08
48200;BME280;33990;44.602;10.976;2023-02-21T00:32:12;101837.25;;;20.73;44.14
48200;BME280;33990;44.602;10.976;2023-02-21T00:34:58;101830.19;;;20.72;44.09
48200;BME280;33990;44.602;10.976;2023-02-21T00:37:48;101825.78;;;20.71;44.14
48200;BME280;33990;44.602;10.976;2023-02-21T00:40:34;101824.78;;;20.72;44.08
48200;BME280;33990;44.602;10.976;2023-02-21T00:43:29;101824.91;;;20.71;43.98
48200;BME280;33990;44.602;10.976;2023-02-21T00:46:16;101823.09;;;20.71;44.03
48200;BME280;33990;44.602;10.976;2023-02-21T00:49:03;101817.78;;;20.70;43.91
48200;BME280;33990;44.602;10.976;2023-02-21T00:51:50;101817.78;;;20.70;44.01
48200;BME280;33990;44.602;10.976;2023-02-21T00:54:36;101822.31;;;20.69;44.00
48200;BME280;33990;44.602;10.976;2023-02-21T00:57:22;101815.25;;;20.68;44.23
48200;BME280;33990;44.602;10.976;2023-02-21T01:00:15;101811.81;;;20.66;44.09
48200;BME280;33990;44.602;10.976;2023-02-21T01:03:02;101814.50;;;20.66;43.89
48200;BME280;33990;44.602;10.976;2023-02-21T01:05:48;101809.97;;;20.67;43.99
48200;BME280;33990;44.602;10.976;2023-02-21T01:08:34;101807.38;;;20.65;43.89
48200;BME280;33990;44.602;10.976;2023-02-21T01:11:21;101808.25;;;20.66;44.03
48200;BME280;33990;44.602;10.976;2023-02-21T01:14:07;101803.84;;;20.65;43.99
48200;BME280;33990;44.602;10.976;2023-02-21T01:16:54;101803.84;;;20.65;43.87
48200;BME280;33990;44.602;10.976;2023-02-21T01:19:41;101808.38;;;20.64;43.81
48200;BME280;33990;44.602;10.976;2023-02-21T01:22:27;101806.66;;;20.63;43.95
48200;BME280;33990;44.602;10.976;2023-02-21T01:25:14;101806.66;;;20.63;44.04
48200;BME280;33990;44.602;10.976;2023-02-21T01:28:00;101803.13;;;20.63;44.01
48200;BME280;33990;44.602;10.976;2023-02-21T01:30:46;101789.66;;;20.63;44.06
48200;BME280;33990;44.602;10.976;2023-02-21T01:33:38;101785.25;;;20.62;43.89
48200;BME280;33990;44.602;10.976;2023-02-21T01:36:25;101781.69;;;20.61;43.98
48200;BME280;33990;44.602;10.976;2023-02-21T01:39:11;101788.91;;;20.61;44.02
48200;BME280;33990;44.602;10.976;2023-02-21T01:41:58;101779.00;;;20.61;43.89
48200;BME280;33990;44.602;10.976;2023-02-21T01:44:47;101780.00;;;20.60;43.90
48200;BME280;33990;44.602;10.976;2023-02-21T01:47:33;101768.38;;;20.60;44.05
48200;BME280;33990;44.602;10.976;2023-02-21T01:50:25;101771.06;;;20.60;44.09
48200;BME280;33990;44.602;10.976;2023-02-21T01:53:18;101776.44;;;20.60;43.89
48200;BME280;33990;44.602;10.976;2023-02-21T01:56:05;101773.88;;;20.58;44.06
48200;BME280;33990;44.602;10.976;2023-02-21T01:58:53;101766.66;;;20.59;43.92
48200;BME280;33990;44.602;10.976;2023-02-21T02:04:50;101763.97;;;20.59;43.86
48200;BME280;33990;44.602;10.976;2023-02-21T02:07:37;101762.22;;;20.58;43.86
48200;BME280;33990;44.602;10.976;2023-02-21T02:10:23;101758.69;;;20.57;43.78
48200;BME280;33990;44.602;10.976;2023-02-21T02:22:12;101752.59;;;20.55;43.71
48200;BME280;33990;44.602;10.976;2023-02-21T02:33:45;101744.63;;;20.54;43.73
48200;BME280;33990;44.602;10.976;2023-02-21T02:36:26;101744.63;;;20.54;43.85
48200;BME280;33990;44.602;10.976;2023-02-21T02:39:09;101742.81;;;20.54;43.83
48200;BME280;33990;44.602;10.976;2023-02-21T02:44:42;101741.06;;;20.53;43.85
48200;BME280;33990;44.602;10.976;2023-02-21T02:47:16;101740.22;;;20.53;43.86
48200;BME280;33990;44.602;10.976;2023-02-21T02:49:47;101739.38;;;20.52;43.86
48200;BME280;33990;44.602;10.976;2023-02-21T02:52:16;101734.97;;;20.51;43.84
48200;BME280;33990;44.602;10.976;2023-02-21T02:54:43;101739.38;;;20.52;43.97
48200;BME280;33990;44.602;10.976;2023-02-21T02:57:11;101732.28;;;20.51;43.88
48200;BME280;33990;44.602;10.976;2023-02-21T02:59:43;101743.03;;;20.51;43.94
48200;BME280;33990;44.602;10.976;2023-02-21T03:08:16;101730.56;;;20.50;43.93
48200;BME280;33990;44.602;10.976;2023-02-21T03:11:06;101733.25;;;20.50;43.89
48200;BME280;33990;44.602;10.976;2023-02-21T03:13:57;101731.53;;;20.49;43.87
48200;BME280;33990;44.602;10.976;2023-02-21T03:16:44;101729.78;;;20.48;43.80
48200;BME280;33990;44.602;10.976;2023-02-21T03:19:16;101729.69;;;20.49;44.00
48200;BME280;33990;44.602;10.976;2023-02-21T03:21:59;101727.97;;;20.48;43.99
48200;BME280;33990;44.602;10.976;2023-02-21T03:24:27;101727.97;;;20.48;43.94
48200;BME280;33990;44.602;10.976;2023-02-21T03:26:59;101722.59;;;20.48;44.28
48200;BME280;33990;44.602;10.976;2023-02-21T03:29:56;101721.72;;;20.48;43.98
48200;BME280;33990;44.602;10.976;2023-02-21T03:32:32;101724.41;;;20.48;43.96
48200;BME280;33990;44.602;10.976;2023-02-21T03:35:04;101730.66;;;20.48;44.11
48200;BME280;33990;44.602;10.976;2023-02-21T03:37:38;101727.97;;;20.48;44.08
48200;BME280;33990;44.602;10.976;2023-02-21T03:40:13;101731.63;;;20.47;44.02
48200;BME280;33990;44.602;10.976;2023-02-21T03:42:46;101727.09;;;20.48;43.94
48200;BME280;33990;44.602;10.976;2023-02-21T03:45:16;101726.25;;;20.47;43.92
48200;BME280;33990;44.602;10.976;2023-02-21T03:47:50;101724.53;;;20.46;43.88
48200;BME280;33990;44.602;10.976;2023-02-21T03:50:18;101726.38;;;20.46;43.95
48200;BME280;33990;44.602;10.976;2023-02-21T03:52:46;101725.47;;;20.45;43.86
48200;BME280;33990;44.602;10.976;2023-02-21T03:55:13;101730.00;;;20.45;44.07
48200;BME280;33990;44.602;10.976;2023-02-21T03:57:41;101736.25;;;20.45;43.77
48200;BME280;33990;44.602;10.976;2023-02-21T04:00:10;101735.38;;;20.45;43.72
48200;BME280;33990;44.602;10.976;2023-02-21T04:02:46;101731.84;;;20.44;44.01
48200;BME280;33990;44.602;10.976;2023-02-21T04:05:24;101722.94;;;20.44;43.80
48200;BME280;33990;44.602;10.976;2023-02-21T04:07:51;101721.22;;;20.43;43.94
48200;BME280;33990;44.602;10.976;2023-02-21T04:10:18;101734.66;;;20.43;43.81
48200;BME280;33990;44.602;10.976;2023-02-21T04:12:47;101729.28;;;20.43;43.83
48200;BME280;33990;44.602;10.976;2023-02-21T04:15:15;101729.28;;;20.43;43.67
48200;BME280;33990;44.602;10.976;2023-02-21T04:17:43;101727.59;;;20.42;43.84
48200;BME280;33990;44.602;10.976;2023-02-21T04:20:10;101722.19;;;20.42;43.69
48200;BME280;33990;44.602;10.976;2023-02-21T04:22:42;101726.69;;;20.41;43.63
48200;BME280;33990;44.602;10.976;2023-02-21T04:25:16;101721.31;;;20.41;43.75
48200;BME280;33990;44.602;10.976;2023-02-21T04:27:56;101729.50;;;20.40;43.75
48200;BME280;33990;44.602;10.976;2023-02-21T04:30:24;101729.50;;;20.40;43.78
48200;BME280;33990;44.602;10.976;2023-02-21T04:32:52;101730.50;;;20.39;43.71
48200;BME280;33990;44.602;10.976;2023-02-21T04:35:19;101731.34;;;20.39;43.66
48200;BME280;33990;44.602;10.976;2023-02-21T04:37:47;101732.31;;;20.38;43.66
48200;BME280;33990;44.602;10.976;2023-02-21T04:40:14;101726.09;;;20.38;43.69
48200;BME280;33990;44.602;10.976;2023-02-21T04:42:43;101724.25;;;20.38;43.55
48200;BME280;33990;44.602;10.976;2023-02-21T04:45:10;101723.41;;;20.38;43.50
48200;BME280;33990;44.602;10.976;2023-02-21T04:47:37;101726.19;;;20.36;43.64
48200;BME280;33990;44.602;10.976;2023-02-21T04:50:05;101724.50;;;20.35;43.47
48200;BME280;33990;44.602;10.976;2023-02-21T04:52:32;101728.03;;;20.36;43.64
48200;BME280;33990;44.602;10.976;2023-02-21T04:55:00;101727.19;;;20.35;43.60
48200;BME280;33990;44.602;10.976;2023-02-21T04:57:27;101731.69;;;20.35;43.56
48200;BME280;33990;44.602;10.976;2023-02-21T04:59:56;101725.47;;;20.34;43.65
48200;BME280;33990;44.602;10.976;2023-02-21T05:02:24;101726.31;;;20.35;43.58
48200;BME280;33990;44.602;10.976;2023-02-21T05:04:52;101724.63;;;20.34;43.63
48200;BME280;33990;44.602;10.976;2023-02-21T05:07:19;101726.41;;;20.33;43.40
48200;BME280;33990;44.602;10.976;2023-02-21T05:09:47;101718.34;;;20.33;43.37
48200;BME280;33990;44.602;10.976;2023-02-21T05:12:14;101720.19;;;20.33;43.54
48200;BME280;33990;44.602;10.976;2023-02-21T05:14:41;101712.13;;;20.33;43.92
48200;BME280;33990;44.602;10.976;2023-02-21T05:17:09;101714.72;;;20.34;43.81
48200;BME280;33990;44.602;10.976;2023-02-21T05:19:36;101708.47;;;20.34;43.76
48200;BME280;33990;44.602;10.976;2023-02-21T05:22:04;101704.91;;;20.33;43.66
48200;BME280;33990;44.602;10.976;2023-02-21T05:24:34;101711.16;;;20.34;43.77
48200;BME280;33990;44.602;10.976;2023-02-21T05:27:01;101712.13;;;20.33;43.67
48200;BME280;33990;44.602;10.976;2023-02-21T05:29:28;101706.75;;;20.33;43.75
48200;BME280;33990;44.602;10.976;2023-02-21T05:31:56;101699.66;;;20.32;43.89
48200;BME280;33990;44.602;10.976;2023-02-21T05:34:23;101687.19;;;20.31;43.69
48200;BME280;33990;44.602;10.976;2023-02-21T05:36:50;101688.03;;;20.31;44.06
48200;BME280;33990;44.602;10.976;2023-02-21T05:39:17;101688.91;;;20.32;44.06
48200;BME280;33990;44.602;10.976;2023-02-21T05:41:49;101697.94;;;20.31;44.04
48200;BME280;33990;44.602;10.976;2023-02-21T05:44:17;101683.53;;;20.32;43.82
48200;BME280;33990;44.602;10.976;2023-02-21T05:46:44;101685.34;;;20.31;43.82
48200;BME280;33990;44.602;10.976;2023-02-21T05:49:12;101689.03;;;20.30;43.94
48200;BME280;33990;44.602;10.976;2023-02-21T05:51:41;101681.81;;;20.31;43.94
48200;BME280;33990;44.602;10.976;2023-02-21T05:54:13;101685.50;;;20.30;43.91
48200;BME280;33990;44.602;10.976;2023-02-21T05:56:42;101681.91;;;20.29;43.87
48200;BME280;33990;44.602;10.976;2023-02-21T05:59:10;101687.28;;;20.29;43.84
48200;BME280;33990;44.602;10.976;2023-02-21T06:01:38;101684.72;;;20.28;43.78
48200;BME280;33990;44.602;10.976;2023-02-21T06:04:06;101688.28;;;20.28;43.98
48200;BME280;33990;44.602;10.976;2023-02-21T06:06:34;101697.31;;;20.27;43.72
48200;BME280;33990;44.602;10.976;2023-02-21T06:09:02;101680.34;;;20.27;43.79
48200;BME280;33990;44.602;10.976;2023-02-21T06:11:33;101692.94;;;20.26;43.74
48200;BME280;33990;44.602;10.976;2023-02-21T06:14:02;101689.38;;;20.25;43.66
48200;BME280;33990;44.602;10.976;2023-02-21T06:16:37;101694.75;;;20.25;43.68
48200;BME280;33990;44.602;10.976;2023-02-21T06:19:06;101681.31;;;20.25;43.76
48200;BME280;33990;44.602;10.976;2023-02-21T06:21:34;101688.50;;;20.25;43.83
48200;BME280;33990;44.602;10.976;2023-02-21T06:24:02;101691.31;;;20.23;43.61
48200;BME280;33990;44.602;10.976;2023-02-21T06:26:30;101691.31;;;20.23;43.65
48200;BME280;33990;44.602;10.976;2023-02-21T06:28:58;101697.56;;;20.24;43.64
48200;BME280;33990;44.602;10.976;2023-02-21T06:31:25;101688.63;;;20.23;43.43
48200;BME280;33990;44.602;10.976;2023-02-21T06:33:53;101684.25;;;20.22;43.66
48200;BME280;33990;44.602;10.976;2023-02-21T06:36:23;101692.31;;;20.22;43.42
48200;BME280;33990;44.602;10.976;2023-02-21T06:38:53;101692.31;;;20.22;43.55
48200;BME280;33990;44.602;10.976;2023-02-21T06:41:28;101698.53;;;20.23;43.60
48200;BME280;33990;44.602;10.976;2023-02-21T06:43:57;101701.22;;;20.23;43.68
48200;BME280;33990;44.602;10.976;2023-02-21T06:46:27;101701.22;;;20.23;43.67
48200;BME280;33990;44.602;10.976;2023-02-21T06:48:55;101710.13;;;20.23;43.51
48200;BME280;33990;44.602;10.976;2023-02-21T06:51:22;101711.13;;;20.22;43.56
48200;BME280;33990;44.602;10.976;2023-02-21T06:53:56;101700.38;;;20.22;43.65
48200;BME280;33990;44.602;10.976;2023-02-21T06:56:24;101711.13;;;20.22;43.79
48200;BME280;33990;44.602;10.976;2023-02-21T06:58:53;101712.06;;;20.21;43.62
48200;BME280;33990;44.602;10.976;2023-02-21T07:01:20;101715.66;;;20.22;43.50
48200;BME280;33990;44.602;10.976;2023-02-21T07:03:50;101721.88;;;20.22;43.51
48200;BME280;33990;44.602;10.976;2023-02-21T07:06:17;101721.03;;;20.22;43.51
48200;BME280;33990;44.602;10.976;2023-02-21T07:08:45;101715.75;;;20.20;43.90
48200;BME280;33990;44.602;10.976;2023-02-21T07:11:13;101721.03;;;20.22;43.90
48200;BME280;33990;44.602;10.976;2023-02-21T07:13:40;101723.72;;;20.22;43.87
48200;BME280;33990;44.602;10.976;2023-02-21T07:16:08;101721.97;;;20.21;43.92
48200;BME280;33990;44.602;10.976;2023-02-21T07:18:35;101728.22;;;20.21;43.71
48200;BME280;33990;44.602;10.976;2023-02-21T07:21:02;101724.66;;;20.21;43.89
48200;BME280;33990;44.602;10.976;2023-02-21T07:23:30;101724.66;;;20.21;43.72
48200;BME280;33990;44.602;10.976;2023-02-21T07:25:57;101729.19;;;20.20;43.94
48200;BME280;33990;44.602;10.976;2023-02-21T07:28:24;101730.16;;;20.19;43.83
48200;BME280;33990;44.602;10.976;2023-02-21T07:30:52;101724.91;;;20.18;43.87
48200;BME280;33990;44.602;10.976;2023-02-21T07:33:19;101723.09;;;20.18;44.00
48200;BME280;33990;44.602;10.976;2023-02-21T07:35:46;101722.22;;;20.18;43.75
48200;BME280;33990;44.602;10.976;2023-02-21T07:38:21;101726.63;;;20.19;43.86
48200;BME280;33990;44.602;10.976;2023-02-21T07:40:49;101732.09;;;20.17;43.87
48200;BME280;33990;44.602;10.976;2023-02-21T07:43:16;101731.25;;;20.17;43.96
48200;BME280;33990;44.602;10.976;2023-02-21T07:45:44;101733.06;;;20.16;44.00
48200;BME280;33990;44.602;10.976;2023-02-21T07:48:11;101736.75;;;20.15;43.98
48200;BME280;33990;44.602;10.976;2023-02-21T07:50:42;101736.75;;;20.15;44.17
48200;BME280;33990;44.602;10.976;2023-02-21T07:53:10;101736.75;;;20.15;44.25
48200;BME280;33990;44.602;10.976;2023-02-21T07:55:38;101742.97;;;20.16;44.24
48200;BME280;33990;44.602;10.976;2023-02-21T07:58:05;101736.63;;;20.17;44.29
48200;BME280;33990;44.602;10.976;2023-02-21T08:00:33;101737.38;;;20.19;44.06
48200;BME280;33990;44.602;10.976;2023-02-21T08:03:00;101744.34;;;20.21;44.12
48200;BME280;33990;44.602;10.976;2023-02-21T08:05:28;101741.66;;;20.21;44.12
48200;BME280;33990;44.602;10.976;2023-02-21T08:07:56;101731.03;;;20.20;43.92
48200;BME280;33990;44.602;10.976;2023-02-21T08:10:25;101736.53;;;20.18;42.80
48200;BME280;33990;44.602;10.976;2023-02-21T08:12:53;101730.28;;;20.18;42.89
48200;BME280;33990;44.602;10.976;2023-02-21T08:15:20;101738.34;;;20.18;43.66
48200;BME280;33990;44.602;10.976;2023-02-21T08:17:49;101732.00;;;20.19;44.10
48200;BME280;33990;44.602;10.976;2023-02-21T08:20:18;101736.41;;;20.20;43.50
48200;BME280;33990;44.602;10.976;2023-02-21T08:22:45;101737.16;;;20.22;44.19
48200;BME280;33990;44.602;10.976;2023-02-21T08:25:14;101740.78;;;20.21;43.96
48200;BME280;33990;44.602;10.976;2023-02-21T08:27:42;101736.53;;;20.18;42.55
48200;BME280;33990;44.602;10.976;2023-02-21T08:30:13;101738.19;;;20.08;41.86
48200;BME280;33990;44.602;10.976;2023-02-21T08:32:43;101737.50;;;19.93;41.69
48200;BME280;33990;44.602;10.976;2023-02-21T08:35:14;101742.69;;;19.84;41.75
48200;BME280;33990;44.602;10.976;2023-02-21T08:37:46;101736.28;;;19.73;41.54
48200;BME280;33990;44.602;10.976;2023-02-21T08:40:18;101746.81;;;19.64;41.82
48200;BME280;33990;44.602;10.976;2023-02-21T08:42:49;101749.94;;;19.58;41.58
48200;BME280;33990;44.602;10.976;2023-02-21T08:45:19;101752.97;;;19.53;41.80
48200;BME280;33990;44.602;10.976;2023-02-21T08:47:47;101749.00;;;19.46;42.13
48200;BME280;33990;44.602;10.976;2023-02-21T08:50:15;101742.13;;;19.42;42.41
48200;BME280;33990;44.602;10.976;2023-02-21T08:52:45;101749.41;;;19.40;42.54
48200;BME280;33990;44.602;10.976;2023-02-21T08:55:12;101748.16;;;19.33;42.79
48200;BME280;33990;44.602;10.976;2023-02-21T08:57:40;101752.13;;;19.27;43.03
48200;BME280;33990;44.602;10.976;2023-02-21T09:00:08;101744.94;;;19.27;43.11
48200;BME280;33990;44.602;10.976;2023-02-21T09:02:38;101746.22;;;19.35;42.66
48200;BME280;33990;44.602;10.976;2023-02-21T09:05:27;101753.59;;;19.44;42.76
48200;BME280;33990;44.602;10.976;2023-02-21T09:07:57;101745.13;;;19.50;42.68
48200;BME280;33990;44.602;10.976;2023-02-21T09:10:29;101751.00;;;19.55;42.68
48200;BME280;33990;44.602;10.976;2023-02-21T09:12:57;101745.44;;;19.58;42.65
48200;BME280;33990;44.602;10.976;2023-02-21T09:15:25;101740.72;;;19.62;42.61
48200;BME280;33990;44.602;10.976;2023-02-21T09:17:52;101739.53;;;19.66;43.13
48200;BME280;33990;44.602;10.976;2023-02-21T09:20:23;101745.41;;;19.71;43.01
48200;BME280;33990;44.602;10.976;2023-02-21T09:22:51;101750.44;;;19.75;43.57
48200;BME280;33990;44.602;10.976;2023-02-21T09:25:21;101747.41;;;19.80;43.37
48200;BME280;33990;44.602;10.976;2023-02-21T09:27:51;101741.84;;;19.83;43.17
48200;BME280;33990;44.602;10.976;2023-02-21T09:30:23;101742.47;;;19.87;43.11
48200;BME280;33990;44.602;10.976;2023-02-21T09:32:53;101741.41;;;19.89;43.09
48200;BME280;33990;44.602;10.976;2023-02-21T09:35:21;101743.97;;;19.91;43.09
48200;BME280;33990;44.602;10.976;2023-02-21T09:37:49;101751.03;;;19.92;42.95
48200;BME280;33990;44.602;10.976;2023-02-21T09:40:44;101750.19;;;19.91;43.30
48200;BME280;33990;44.602;10.976;2023-02-21T09:43:34;101738.34;;;19.94;42.79
48200;BME280;33990;44.602;10.976;2023-02-21T09:46:08;101742.00;;;19.93;43.07
48200;BME280;33990;44.602;10.976;2023-02-21T09:48:38;101735.69;;;19.94;43.33
48200;BME280;33990;44.602;10.976;2023-02-21T09:51:08;101744.59;;;19.94;43.45
48200;BME280;33990;44.602;10.976;2023-02-21T09:53:42;101739.94;;;19.96;43.50
48200;BME280;33990;44.602;10.976;2023-02-21T09:58:49;101734.34;;;19.99;43.48
48200;BME280;33990;44.602;10.976;2023-02-21T10:01:38;101733.38;;;20.00;43.47
48200;BME280;33990;44.602;10.976;2023-02-21T10:04:16;101738.75;;;20.00;43.48
48200;BME280;33990;44.602;10.976;2023-02-21T10:06:52;101734.13;;;20.03;43.71
48200;BME280;33990;44.602;10.976;2023-02-21T10:09:47;101738.53;;;20.04;43.75
48200;BME280;33990;44.602;10.976;2023-02-21T10:12:24;101732.16;;;20.05;43.72
48200;BME280;33990;44.602;10.976;2023-02-21T10:15:31;101729.38;;;20.06;43.80
48200;BME280;33990;44.602;10.976;2023-02-21T10:20:40;101730.09;;;20.08;43.70
48200;BME280;33990;44.602;10.976;2023-02-21T10:23:15;101720.22;;;20.09;43.86
48200;BME280;33990;44.602;10.976;2023-02-21T10:25:44;101728.28;;;20.09;43.80
48200;BME280;33990;44.602;10.976;2023-02-21T10:28:23;101727.31;;;20.10;43.78
48200;BME280;33990;44.602;10.976;2023-02-21T10:30:54;101729.13;;;20.09;43.90
48200;BME280;33990;44.602;10.976;2023-02-21T10:33:23;101727.19;;;20.11;44.29
48200;BME280;33990;44.602;10.976;2023-02-21T10:35:50;101729.13;;;20.09;44.13
48200;BME280;33990;44.602;10.976;2023-02-21T10:38:24;101720.22;;;20.09;44.33
48200;BME280;33990;44.602;10.976;2023-02-21T10:40:58;101722.03;;;20.08;44.12
48200;BME280;33990;44.602;10.976;2023-02-21T10:43:46;101717.44;;;20.10;44.14
48200;BME280;33990;44.602;10.976;2023-02-21T10:48:42;101711.19;;;20.10;44.57
48200;BME280;33990;44.602;10.976;2023-02-21T10:51:11;101712.91;;;20.11;44.52
48200;BME280;33990;44.602;10.976;2023-02-21T10:53:41;101719.84;;;20.13;44.58
48200;BME280;33990;44.602;10.976;2023-02-21T10:58:48;101708.25;;;20.13;44.49
48200;BME280;33990;44.602;10.976;2023-02-21T11:03:56;101698.34;;;20.13;44.22
48200;BME280;33990;44.602;10.976;2023-02-21T11:06:37;101692.97;;;20.13;44.60
48200;BME280;33990;44.602;10.976;2023-02-21T11:12:02;101693.72;;;20.15;44.38
48200;BME280;33990;44.602;10.976;2023-02-21T11:14:32;101682.97;;;20.15;44.43
48200;BME280;33990;44.602;10.976;2023-02-21T11:17:14;101677.59;;;20.15;44.38
48200;BME280;33990;44.602;10.976;2023-02-21T11:19:54;101678.31;;;20.17;44.29
48200;BME280;33990;44.602;10.976;2023-02-21T11:27:43;101672.00;;;20.18;44.41
48200;BME280;33990;44.602;10.976;2023-02-21T11:30:19;101662.19;;;20.17;44.39
48200;BME280;33990;44.602;10.976;2023-02-21T11:32:54;101658.44;;;20.20;44.25
48200;BME280;33990;44.602;10.976;2023-02-21T11:35:28;101655.59;;;20.21;44.46
48200;BME280;33990;44.602;10.976;2023-02-21T11:38:05;101657.56;;;20.19;44.47
48200;BME280;33990;44.602;10.976;2023-02-21T11:40:41;101654.66;;;20.22;44.29
48200;BME280;33990;44.602;10.976;2023-02-21T11:43:27;101652.06;;;20.21;44.70
48200;BME280;33990;44.602;10.976;2023-02-21T11:48:29;101633.25;;;20.21;44.63
48200;BME280;33990;44.602;10.976;2023-02-21T11:51:03;101634.09;;;20.21;44.52
48200;BME280;33990;44.602;10.976;2023-02-21T11:53:40;101630.56;;;20.21;44.82
48200;BME280;33990;44.602;10.976;2023-02-21T11:56:29;101624.22;;;20.22;44.79
48200;BME280;33990;44.602;10.976;2023-02-21T11:59:28;101622.41;;;20.22;44.70
48200;BME280;33990;44.602;10.976;2023-02-21T12:07:46;101612.38;;;20.24;44.93
48200;BME280;33990;44.602;10.976;2023-02-21T12:13:36;101602.72;;;20.22;44.85
48200;BME280;33990;44.602;10.976;2023-02-21T12:16:21;101597.34;;;20.22;44.79
48200;BME280;33990;44.602;10.976;2023-02-21T12:19:29;101589.38;;;20.20;44.89
48200;BME280;33990;44.602;10.976;2023-02-21T12:27:14;101584.00;;;20.20;45.05
48200;BME280;33990;44.602;10.976;2023-02-21T12:32:30;101566.03;;;20.21;44.94
48200;BME280;33990;44.602;10.976;2023-02-21T12:37:58;101560.44;;;20.24;45.02
48200;BME280;33990;44.602;10.976;2023-02-21T12:48:41;101546.53;;;20.30;45.24
48200;BME280;33990;44.602;10.976;2023-02-21T12:51:16;101544.69;;;20.31;45.24
48200;BME280;33990;44.602;10.976;2023-02-21T12:53:53;101548.22;;;20.31;45.40
48200;BME280;33990;44.602;10.976;2023-02-21T12:56:34;101541.75;;;20.34;45.49
48200;BME280;33990;44.602;10.976;2023-02-21T13:01:58;101539.66;;;20.37;45.74
48200;BME280;33990;44.602;10.976;2023-02-21T13:07:12;101529.78;;;20.38;45.72
48200;BME280;33990;44.602;10.976;2023-02-21T13:09:58;101527.09;;;20.38;45.69
48200;BME280;33990;44.602;10.976;2023-02-21T13:12:47;101527.09;;;20.38;45.38
48200;BME280;33990;44.602;10.976;2023-02-21T13:17:50;101527.19;;;20.36;45.25
48200;BME280;33990;44.602;10.976;2023-02-21T13:20:20;101524.41;;;20.38;45.12
48200;BME280;33990;44.602;10.976;2023-02-21T13:22:48;101519.88;;;20.38;45.39
48200;BME280;33990;44.602;10.976;2023-02-21T13:28:18;101504.59;;;20.39;45.13
48200;BME280;33990;44.602;10.976;2023-02-21T13:30:50;101503.75;;;20.38;45.30
48200;BME280;33990;44.602;10.976;2023-02-21T13:33:43;101502.88;;;20.38;45.32
48200;BME280;33990;44.602;10.976;2023-02-21T13:36:25;101493.84;;;20.39;45.38
48200;BME280;33990;44.602;10.976;2023-02-21T13:41:49;101482.22;;;20.38;45.41
48200;BME280;33990;44.602;10.976;2023-02-21T13:44:43;101485.75;;;20.39;45.11
48200;BME280;33990;44.602;10.976;2023-02-21T13:47:15;101481.38;;;20.38;45.28
48200;BME280;33990;44.602;10.976;2023-02-21T14:05:22;101463.25;;;20.40;44.92
48200;BME280;33990;44.602;10.976;2023-02-21T14:08:02;101467.78;;;20.39;45.00
48200;BME280;33990;44.602;10.976;2023-02-21T14:10:43;101465.94;;;20.40;45.30
48200;BME280;33990;44.602;10.976;2023-02-21T14:13:34;101469.50;;;20.40;45.38
48200;BME280;33990;44.602;10.976;2023-02-21T14:16:15;101455.19;;;20.40;45.29
48200;BME280;33990;44.602;10.976;2023-02-21T14:18:50;101449.22;;;20.36;44.50
48200;BME280;33990;44.602;10.976;2023-02-21T14:21:21;101452.03;;;20.35;44.39
48200;BME280;33990;44.602;10.976;2023-02-21T14:24:00;101453.97;;;20.33;44.47
48200;BME280;33990;44.602;10.976;2023-02-21T14:29:28;101437.84;;;20.33;44.83
48200;BME280;33990;44.602;10.976;2023-02-21T14:37:34;101436.75;;;20.35;44.84
48200;BME280;33990;44.602;10.976;2023-02-21T14:48:18;101419.53;;;20.38;45.10
48200;BME280;33990;44.602;10.976;2023-02-21T14:59:52;101409.47;;;20.40;45.16
48200;BME280;33990;44.602;10.976;2023-02-21T15:08:05;101405.81;;;20.41;45.10
48200;BME280;33990;44.602;10.976;2023-02-21T15:10:42;101412.91;;;20.42;45.29
48200;BME280;33990;44.602;10.976;2023-02-21T15:13:33;101407.63;;;20.40;45.31
48200;BME280;33990;44.602;10.976;2023-02-21T15:16:07;101403.13;;;20.41;45.45
48200;BME280;33990;44.602;10.976;2023-02-21T15:18:40;101397.72;;;20.41;45.37
48200;BME280;33990;44.602;10.976;2023-02-21T15:23:42;101388.94;;;20.39;45.23
48200;BME280;33990;44.602;10.976;2023-02-21T15:26:26;101391.88;;;20.36;45.11
48200;BME280;33990;44.602;10.976;2023-02-21T15:29:22;101397.41;;;20.34;45.21
48200;BME280;33990;44.602;10.976;2023-02-21T15:31:54;101390.28;;;20.33;45.37
48200;BME280;33990;44.602;10.976;2023-02-21T15:34:26;101391.28;;;20.32;45.09
48200;BME280;33990;44.602;10.976;2023-02-21T15:37:02;101397.50;;;20.33;45.21
48200;BME280;33990;44.602;10.976;2023-02-21T15:39:33;101396.78;;;20.31;45.23
48200;BME280;33990;44.602;10.976;2023-02-21T15:42:04;101389.56;;;20.31;45.25
48200;BME280;33990;44.602;10.976;2023-02-21T15:44:39;101393.13;;;20.32;45.08